sensor_id;sensor_type;location;lat;lon;timestamp;pressure;altitude;pressure_sealevel;temperature;humidity
32933;BME280;19444;50.518;10.870;2024-02-26T00:00:07;95006.22;;;0.85;100.00
32933;BME280;19444;50.518;10.870;2024-02-26T00:03:06;95009.13;;;0.84;100.00
32933;BME280;19444;50.518;10.870;2024-02-26T00:06:03;95003.69;;;0.51;100.00
32933;BME280;19444;50.518;10.870;2024-02-26T00:09:00;95012.84;;;0.83;100.00
32933;BME280;19444;50.518;10.870;2024-02-26T00:11:57;95007.53;;;0.64;100.00
32933;BME280;19444;50.518;10.870;2024-02-26T00:14:56;94994.88;;;0.61;100.00
32933;BME280;19444;50.518;10.870;2024-02-26T00:17:55;95006.72;;;0.40;100.00
32933;BME280;19444;50.518;10.870;2024-02-26T00:20:52;94995.38;;;0.63;100.00
32933;BME280;19444;50.518;10.870;2024-02-26T00:23:53;94983.50;;;0.66;100.00
32933;BME280;19444;50.518;10.870;2024-02-26T00:26:50;94989.28;;;0.68;100.00
32933;BME280;19444;50.518;10.870;2024-02-26T00:29:51;94995.00;;;0.51;100.00
32933;BME280;19444;50.518;10.870;2024-02-26T00:32:47;94992.75;;;0.63;100.00
32933;BME280;19444;50.518;10.870;2024-02-26T00:35:45;94986.94;;;0.66;100.00
32933;BME280;19444;50.518;10.870;2024-02-26T00:38:42;94980.31;;;0.45;100.00
32933;BME280;19444;50.518;10.870;2024-02-26T00:41:41;94980.13;;;0.36;100.00
32933;BME280;19444;50.518;10.870;2024-02-26T00:44:38;94965.22;;;0.74;100.00
32933;BME280;19444;50.518;10.870;2024-02-26T00:47:35;94981.22;;;1.02;100.00
32933;BME280;19444;50.518;10.870;2024-02-26T00:50:32;94970.38;;;0.61;100.00
32933;BME280;19444;50.518;10.870;2024-02-26T00:53:30;94965.44;;;0.78;100.00
32933;BME280;19444;50.518;10.870;2024-02-26T00:56:27;94968.22;;;0.87;100.00
32933;BME280;19444;50.518;10.870;2024-02-26T00:59:24;94964.84;;;0.81;100.00
32933;BME280;19444;50.518;10.870;2024-02-26T01:02:21;94976.25;;;0.76;100.00
32933;BME280;19444;50.518;10.870;2024-02-26T01:05:18;94962.81;;;0.54;100.00
32933;BME280;19444;50.518;10.870;2024-02-26T01:08:15;94970.88;;;0.87;100.00
32933;BME280;19444;50.518;10.870;2024-02-26T01:11:12;94962.34;;;0.71;100.00
32933;BME280;19444;50.518;10.870;2024-02-26T01:14:10;94961.69;;;0.60;100.00
32933;BME280;19444;50.518;10.870;2024-02-26T01:17:07;94958.50;;;0.82;100.00
32933;BME280;19444;50.518;10.870;2024-02-26T01:20:04;94954.84;;;0.83;100.00
32933;BME280;19444;50.518;10.870;2024-02-26T01:23:01;94957.38;;;0.88;100.00
32933;BME280;19444;50.518;10.870;2024-02-26T01:25:59;94960.38;;;0.81;100.00
32933;BME280;19444;50.518;10.870;2024-02-26T01:28:56;94956.00;;;0.72;100.00
32933;BME280;19444;50.518;10.870;2024-02-26T01:31:52;94952.72;;;0.61;100.00
32933;BME280;19444;50.518;10.870;2024-02-26T01:34:49;94960.44;;;0.76;100.00
32933;BME280;19444;50.518;10.870;2024-02-26T01:37:46;94966.94;;;0.84;100.00
32933;BME280;19444;50.518;10.870;2024-02-26T01:40:43;94962.31;;;0.95;100.00
32933;BME280;19444;50.518;10.870;2024-02-26T01:43:40;94963.53;;;0.83;100.00
32933;BME280;19444;50.518;10.870;2024-02-26T01:46:37;94959.78;;;0.66;100.00
32933;BME280;19444;50.518;10.870;2024-02-26T01:49:34;94958.94;;;0.89;100.00
32933;BME280;19444;50.518;10.870;2024-02-26T01:52:32;94955.31;;;0.85;100.00
32933;BME280;19444;50.518;10.870;2024-02-26T01:55:29;94964.97;;;0.95;100.00
32933;BME280;19444;50.518;10.870;2024-02-26T01:58:27;94970.00;;;0.48;100.00
32933;BME280;19444;50.518;10.870;2024-02-26T02:01:27;94965.69;;;0.34;100.00
32933;BME280;19444;50.518;10.870;2024-02-26T02:04:24;94970.22;;;0.28;100.00
32933;BME280;19444;50.518;10.870;2024-02-26T02:07:23;94958.72;;;0.67;100.00
32933;BME280;19444;50.518;10.870;2024-02-26T02:10:21;94967.41;;;0.43;100.00
32933;BME280;19444;50.518;10.870;2024-02-26T02:13:22;94967.25;;;0.59;100.00
32933;BME280;19444;50.518;10.870;2024-02-26T02:16:19;94954.59;;;0.37;100.00
32933;BME280;19444;50.518;10.870;2024-02-26T02:19:16;94952.38;;;0.44;100.00
32933;BME280;19444;50.518;10.870;2024-02-26T02:22:13;94956.25;;;0.51;100.00
32933;BME280;19444;50.518;10.870;2024-02-26T02:25:10;94961.47;;;0.56;100.00
32933;BME280;19444;50.518;10.870;2024-02-26T02:28:07;94959.09;;;0.98;100.00
32933;BME280;19444;50.518;10.870;2024-02-26T02:31:04;94967.84;;;0.26;100.00
32933;BME280;19444;50.518;10.870;2024-02-26T02:34:01;94979.53;;;0.68;100.00
32933;BME280;19444;50.518;10.870;2024-02-26T02:36:58;94962.31;;;0.76;100.00
32933;BME280;19444;50.518;10.870;2024-02-26T02:39:55;94962.03;;;0.53;100.00
32933;BME280;19444;50.518;10.870;2024-02-26T02:42:54;94959.84;;;0.61;100.00
32933;BME280;19444;50.518;10.870;2024-02-26T02:45:51;94963.88;;;0.53;100.00
32933;BME280;19444;50.518;10.870;2024-02-26T02:48:48;94959.25;;;0.64;100.00
32933;BME280;19444;50.518;10.870;2024-02-26T02:51:45;94953.91;;;0.74;100.00
32933;BME280;19444;50.518;10.870;2024-02-26T02:54:42;94955.75;;;0.73;100.00
32933;BME280;19444;50.518;10.870;2024-02-26T02:57:39;94954.25;;;0.43;100.00
32933;BME280;19444;50.518;10.870;2024-02-26T03:00:38;94955.78;;;0.68;100.00
32933;BME280;19444;50.518;10.870;2024-02-26T03:03:35;94957.03;;;0.52;100.00
32933;BME280;19444;50.518;10.870;2024-02-26T03:06:33;94957.97;;;0.61;100.00
32933;BME280;19444;50.518;10.870;2024-02-26T03:09:30;94952.38;;;0.44;100.00
32933;BME280;19444;50.518;10.870;2024-02-26T03:12:27;94960.84;;;0.17;100.00
32933;BME280;19444;50.518;10.870;2024-02-26T03:15:24;94957.94;;;0.42;100.00
32933;BME280;19444;50.518;10.870;2024-02-26T03:18:21;94953.13;;;0.49;100.00
32933;BME280;19444;50.518;10.870;2024-02-26T03:21:19;94954.81;;;0.40;100.00
32933;BME280;19444;50.518;10.870;2024-02-26T03:24:16;94959.84;;;0.61;100.00
32933;BME280;19444;50.518;10.870;2024-02-26T03:27:13;94966.88;;;0.17;100.00
32933;BME280;19444;50.518;10.870;2024-02-26T03:30:11;94954.22;;;0.67;100.00
32933;BME280;19444;50.518;10.870;2024-02-26T03:33:08;94959.84;;;0.61;100.00
32933;BME280;19444;50.518;10.870;2024-02-26T03:36:05;94956.44;;;0.79;100.00
32933;BME280;19444;50.518;10.870;2024-02-26T03:39:04;94951.34;;;0.64;100.00
32933;BME280;19444;50.518;10.870;2024-02-26T03:42:04;94952.59;;;0.71;100.00
32933;BME280;19444;50.518;10.870;2024-02-26T03:45:01;94947.19;;;1.00;100.00
32933;BME280;19444;50.518;10.870;2024-02-26T03:47:58;94953.38;;;0.91;100.00
32933;BME280;19444;50.518;10.870;2024-02-26T03:50:55;94950.28;;;1.07;100.00
32933;BME280;19444;50.518;10.870;2024-02-26T03:53:52;94944.97;;;0.89;100.00
32933;BME280;19444;50.518;10.870;2024-02-26T03:56:49;94943.72;;;1.05;100.00
32933;BME280;19444;50.518;10.870;2024-02-26T03:59:46;94954.13;;;1.15;100.00
32933;BME280;19444;50.518;10.870;2024-02-26T04:02:43;94950.69;;;0.96;100.00
32933;BME280;19444;50.518;10.870;2024-02-26T04:05:40;94952.69;;;1.04;100.00
32933;BME280;19444;50.518;10.870;2024-02-26T04:08:37;94949.50;;;1.07;100.00
32933;BME280;19444;50.518;10.870;2024-02-26T04:11:34;94950.22;;;0.94;100.00
32933;BME280;19444;50.518;10.870;2024-02-26T04:14:31;94944.63;;;1.33;100.00
32933;BME280;19444;50.518;10.870;2024-02-26T04:17:28;94934.44;;;1.07;100.00
32933;BME280;19444;50.518;10.870;2024-02-26T04:20:25;94942.91;;;1.42;100.00
32933;BME280;19444;50.518;10.870;2024-02-26T04:23:22;94943.63;;;0.91;100.00
32933;BME280;19444;50.518;10.870;2024-02-26T04:26:19;94942.66;;;1.06;100.00
32933;BME280;19444;50.518;10.870;2024-02-26T04:29:16;94934.38;;;1.12;100.00
32933;BME280;19444;50.518;10.870;2024-02-26T04:32:13;94933.50;;;1.17;100.00
32933;BME280;19444;50.518;10.870;2024-02-26T04:35:10;94935.31;;;1.22;100.00
32933;BME280;19444;50.518;10.870;2024-02-26T04:38:07;94941.72;;;1.34;100.00
32933;BME280;19444;50.518;10.870;2024-02-26T04:41:04;94939.69;;;1.45;100.00
32933;BME280;19444;50.518;10.870;2024-02-26T04:44:02;94933.78;;;1.34;100.00
32933;BME280;19444;50.518;10.870;2024-02-26T04:46:59;94934.53;;;1.21;100.00
32933;BME280;19444;50.518;10.870;2024-02-26T04:49:58;94937.78;;;1.32;100.00
32933;BME280;19444;50.518;10.870;2024-02-26T04:52:55;94938.50;;;1.19;100.00
32933;BME280;19444;50.518;10.870;2024-02-26T04:55:52;94935.81;;;1.05;100.00
32933;BME280;19444;50.518;10.870;2024-02-26T04:58:49;94931.63;;;1.36;100.00
32933;BME280;19444;50.518;10.870;2024-02-26T05:01:46;94935.34;;;1.35;100.00
32933;BME280;19444;50.518;10.870;2024-02-26T05:04:43;94942.75;;;1.52;100.00
32933;BME280;19444;50.518;10.870;2024-02-26T05:07:41;94932.84;;;1.44;100.00
32933;BME280;19444;50.518;10.870;2024-02-26T05:10:42;94936.22;;;1.31;100.00
32933;BME280;19444;50.518;10.870;2024-02-26T05:13:40;94926.75;;;1.62;100.00
32933;BME280;19444;50.518;10.870;2024-02-26T05:16:37;94932.00;;;1.49;100.00
32933;BME280;19444;50.518;10.870;2024-02-26T05:19:34;94930.75;;;1.60;100.00
32933;BME280;19444;50.518;10.870;2024-02-26T05:22:31;94931.50;;;1.47;100.00
32933;BME280;19444;50.518;10.870;2024-02-26T05:25:29;94941.94;;;1.38;100.00
32933;BME280;19444;50.518;10.870;2024-02-26T05:28:26;94936.72;;;1.33;100.00
32933;BME280;19444;50.518;10.870;2024-02-26T05:31:23;94931.59;;;1.23;100.00
32933;BME280;19444;50.518;10.870;2024-02-26T05:34:20;94931.34;;;1.57;100.00
32933;BME280;19444;50.518;10.870;2024-02-26T05:37:19;94946.19;;;1.34;100.00
32933;BME280;19444;50.518;10.870;2024-02-26T05:40:16;94948.78;;;1.39;100.00
32933;BME280;19444;50.518;10.870;2024-02-26T05:43:13;94950.19;;;1.50;100.00
32933;BME280;19444;50.518;10.870;2024-02-26T05:46:12;94953.63;;;1.32;100.00
32933;BME280;19444;50.518;10.870;2024-02-26T05:49:09;94955.00;;;1.29;100.00
32933;BME280;19444;50.518;10.870;2024-02-26T05:52:06;94964.97;;;1.32;100.00
32933;BME280;19444;50.518;10.870;2024-02-26T05:55:04;94962.63;;;1.31;100.00
32933;BME280;19444;50.518;10.870;2024-02-26T05:58:01;94973.47;;;1.10;100.00
32933;BME280;19444;50.518;10.870;2024-02-26T06:00:58;94972.31;;;1.17;100.00
32933;BME280;19444;50.518;10.870;2024-02-26T06:03:55;94981.94;;;1.26;100.00
32933;BME280;19444;50.518;10.870;2024-02-26T06:06:52;94980.50;;;1.53;100.00
32933;BME280;19444;50.518;10.870;2024-02-26T06:09:49;94978.50;;;1.26;100.00
32933;BME280;19444;50.518;10.870;2024-02-26T06:12:46;94982.31;;;1.20;100.00
32933;BME280;19444;50.518;10.870;2024-02-26T06:15:43;94975.81;;;1.82;100.00
32933;BME280;19444;50.518;10.870;2024-02-26T06:18:39;94986.06;;;1.51;100.00
32933;BME280;19444;50.518;10.870;2024-02-26T06:21:36;94989.03;;;1.63;100.00
32933;BME280;19444;50.518;10.870;2024-02-26T06:24:33;94987.50;;;1.43;100.00
32933;BME280;19444;50.518;10.870;2024-02-26T06:27:30;94984.88;;;2.09;100.00
32933;BME280;19444;50.518;10.870;2024-02-26T06:30:27;94991.63;;;1.68;100.00
32933;BME280;19444;50.518;10.870;2024-02-26T06:33:24;94987.41;;;2.00;100.00
32933;BME280;19444;50.518;10.870;2024-02-26T06:36:22;94993.13;;;1.56;100.00
32933;BME280;19444;50.518;10.870;2024-02-26T06:39:19;94987.59;;;1.71;100.00
32933;BME280;19444;50.518;10.870;2024-02-26T06:42:16;94990.31;;;1.85;100.00
32933;BME280;19444;50.518;10.870;2024-02-26T06:45:13;94984.03;;;1.81;100.00
32933;BME280;19444;50.518;10.870;2024-02-26T06:48:10;94981.88;;;1.83;100.00
32933;BME280;19444;50.518;10.870;2024-02-26T06:51:07;94988.59;;;2.08;100.00
32933;BME280;19444;50.518;10.870;2024-02-26T06:54:04;94990.81;;;2.00;100.00
32933;BME280;19444;50.518;10.870;2024-02-26T06:57:01;94993.06;;;2.40;100.00
32933;BME280;19444;50.518;10.870;2024-02-26T06:59:58;94994.81;;;2.44;100.00
32933;BME280;19444;50.518;10.870;2024-02-26T07:02:56;94992.88;;;2.64;100.00
32933;BME280;19444;50.518;10.870;2024-02-26T07:05:53;94990.44;;;2.53;100.00
32933;BME280;19444;50.518;10.870;2024-02-26T07:08:50;94994.38;;;2.10;100.00
32933;BME280;19444;50.518;10.870;2024-02-26T07:11:47;95008.41;;;2.38;100.00
32933;BME280;19444;50.518;10.870;2024-02-26T07:14:44;94998.69;;;2.19;100.00
32933;BME280;19444;50.518;10.870;2024-02-26T07:17:42;95010.28;;;2.23;100.00
32933;BME280;19444;50.518;10.870;2024-02-26T07:20:43;95011.25;;;2.27;100.00
32933;BME280;19444;50.518;10.870;2024-02-26T07:23:41;95011.56;;;2.53;100.00
32933;BME280;19444;50.518;10.870;2024-02-26T07:26:38;95015.50;;;2.97;100.00
32933;BME280;19444;50.518;10.870;2024-02-26T07:29:35;95025.41;;;2.92;100.00
32933;BME280;19444;50.518;10.870;2024-02-26T07:32:32;95030.78;;;3.00;100.00
32933;BME280;19444;50.518;10.870;2024-02-26T07:35:28;95023.84;;;2.77;100.00
32933;BME280;19444;50.518;10.870;2024-02-26T07:38:25;95029.34;;;2.94;100.00
32933;BME280;19444;50.518;10.870;2024-02-26T07:41:38;95032.75;;;2.95;100.00
32933;BME280;19444;50.518;10.870;2024-02-26T07:44:36;95033.25;;;2.69;100.00
32933;BME280;19444;50.518;10.870;2024-02-26T07:47:33;95033.75;;;3.12;100.00
32933;BME280;19444;50.518;10.870;2024-02-26T07:50:31;95032.16;;;3.11;100.00
32933;BME280;19444;50.518;10.870;2024-02-26T07:53:28;95023.16;;;2.85;100.00
32933;BME280;19444;50.518;10.870;2024-02-26T07:56:25;95038.44;;;2.88;100.00
32933;BME280;19444;50.518;10.870;2024-02-26T07:59:23;95042.75;;;2.98;100.00
32933;BME280;19444;50.518;10.870;2024-02-26T08:02:21;95043.03;;;3.10;100.00
32933;BME280;19444;50.518;10.870;2024-02-26T08:05:18;95045.59;;;3.01;100.00
32933;BME280;19444;50.518;10.870;2024-02-26T08:08:15;95048.97;;;3.43;100.00
32933;BME280;19444;50.518;10.870;2024-02-26T08:11:15;95048.94;;;3.21;100.00
32933;BME280;19444;50.518;10.870;2024-02-26T08:14:12;95048.31;;;3.24;100.00
32933;BME280;19444;50.518;10.870;2024-02-26T08:17:10;95045.06;;;3.27;100.00
32933;BME280;19444;50.518;10.870;2024-02-26T08:20:07;95055.16;;;3.75;100.00
32933;BME280;19444;50.518;10.870;2024-02-26T08:23:05;95057.19;;;3.55;100.00
32933;BME280;19444;50.518;10.870;2024-02-26T08:26:02;95060.81;;;3.95;100.00
32933;BME280;19444;50.518;10.870;2024-02-26T08:29:01;95061.38;;;3.70;100.00
32933;BME280;19444;50.518;10.870;2024-02-26T08:31:58;95069.25;;;3.97;100.00
32933;BME280;19444;50.518;10.870;2024-02-26T08:34:54;95065.81;;;3.97;100.00
32933;BME280;19444;50.518;10.870;2024-02-26T08:37:51;95068.09;;;3.90;100.00
32933;BME280;19444;50.518;10.870;2024-02-26T08:40:49;95066.38;;;4.30;100.00
32933;BME280;19444;50.518;10.870;2024-02-26T08:43:46;95072.56;;;4.25;100.00
32933;BME280;19444;50.518;10.870;2024-02-26T08:46:43;95067.84;;;4.45;100.00
32933;BME280;19444;50.518;10.870;2024-02-26T08:49:44;95062.44;;;4.27;100.00
32933;BME280;19444;50.518;10.870;2024-02-26T08:52:41;95063.66;;;4.21;100.00
32933;BME280;19444;50.518;10.870;2024-02-26T08:55:38;95059.31;;;4.25;100.00
32933;BME280;19444;50.518;10.870;2024-02-26T08:58:35;95061.91;;;4.48;100.00
32933;BME280;19444;50.518;10.870;2024-02-26T09:01:32;95050.16;;;4.63;100.00
32933;BME280;19444;50.518;10.870;2024-02-26T09:04:29;95050.13;;;4.94;100.00
32933;BME280;19444;50.518;10.870;2024-02-26T09:07:26;95051.53;;;5.31;100.00
32933;BME280;19444;50.518;10.870;2024-02-26T09:10:23;95042.91;;;5.34;100.00
32933;BME280;19444;50.518;10.870;2024-02-26T09:13:20;95049.84;;;5.69;100.00
32933;BME280;19444;50.518;10.870;2024-02-26T09:16:17;95037.97;;;5.50;100.00
32933;BME280;19444;50.518;10.870;2024-02-26T09:19:15;95044.69;;;6.51;100.00
32933;BME280;19444;50.518;10.870;2024-02-26T09:22:12;95044.78;;;6.63;100.00
32933;BME280;19444;50.518;10.870;2024-02-26T09:25:12;95041.69;;;6.52;100.00
32933;BME280;19444;50.518;10.870;2024-02-26T09:28:09;95043.06;;;7.85;100.00
32933;BME280;19444;50.518;10.870;2024-02-26T09:31:06;95042.56;;;7.92;100.00
32933;BME280;19444;50.518;10.870;2024-02-26T09:34:03;95043.88;;;8.07;100.00
32933;BME280;19444;50.518;10.870;2024-02-26T09:37:01;95039.81;;;8.01;100.00
32933;BME280;19444;50.518;10.870;2024-02-26T09:40:11;95048.28;;;8.23;100.00
32933;BME280;19444;50.518;10.870;2024-02-26T09:43:10;95052.44;;;7.91;100.00
32933;BME280;19444;50.518;10.870;2024-02-26T09:46:10;95059.63;;;8.53;100.00
32933;BME280;19444;50.518;10.870;2024-02-26T09:49:08;95055.78;;;8.63;100.00
32933;BME280;19444;50.518;10.870;2024-02-26T09:52:08;95057.38;;;8.43;100.00
32933;BME280;19444;50.518;10.870;2024-02-26T09:55:08;95071.63;;;8.26;100.00
32933;BME280;19444;50.518;10.870;2024-02-26T09:58:09;95071.28;;;8.82;100.00
32933;BME280;19444;50.518;10.870;2024-02-26T10:01:16;95084.19;;;8.26;100.00
32933;BME280;19444;50.518;10.870;2024-02-26T10:04:13;95074.25;;;8.35;97.11
32933;BME280;19444;50.518;10.870;2024-02-26T10:07:13;95062.78;;;7.72;90.75
32933;BME280;19444;50.518;10.870;2024-02-26T10:10:10;95071.31;;;8.28;74.10
32933;BME280;19444;50.518;10.870;2024-02-26T10:13:08;95068.09;;;8.55;78.45
32933;BME280;19444;50.518;10.870;2024-02-26T10:16:07;95059.19;;;8.51;78.21
32933;BME280;19444;50.518;10.870;2024-02-26T10:19:04;95070.53;;;8.27;79.51
32933;BME280;19444;50.518;10.870;2024-02-26T10:22:02;95062.88;;;8.05;74.00
32933;BME280;19444;50.518;10.870;2024-02-26T10:25:00;95057.00;;;8.12;78.42
32933;BME280;19444;50.518;10.870;2024-02-26T10:28:01;95054.53;;;8.07;72.92
32933;BME280;19444;50.518;10.870;2024-02-26T10:30:59;95060.13;;;8.35;84.27
32933;BME280;19444;50.518;10.870;2024-02-26T10:33:57;95063.25;;;8.16;79.68
32933;BME280;19444;50.518;10.870;2024-02-26T10:37:01;95071.38;;;7.98;82.40
32933;BME280;19444;50.518;10.870;2024-02-26T10:39:59;95071.31;;;7.86;88.62
32933;BME280;19444;50.518;10.870;2024-02-26T10:42:58;95073.94;;;7.65;75.94
32933;BME280;19444;50.518;10.870;2024-02-26T10:45:56;95083.69;;;7.91;80.86
32933;BME280;19444;50.518;10.870;2024-02-26T10:48:53;95086.59;;;7.98;73.41
32933;BME280;19444;50.518;10.870;2024-02-26T10:51:56;95088.28;;;8.03;82.97
32933;BME280;19444;50.518;10.870;2024-02-26T10:54:56;95090.19;;;8.77;69.46
32933;BME280;19444;50.518;10.870;2024-02-26T10:57:56;95082.81;;;9.31;67.22
32933;BME280;19444;50.518;10.870;2024-02-26T11:00:53;95093.31;;;8.79;72.93
32933;BME280;19444;50.518;10.870;2024-02-26T11:03:53;95095.91;;;8.13;76.34
32933;BME280;19444;50.518;10.870;2024-02-26T11:06:50;95088.75;;;8.25;73.79
32933;BME280;19444;50.518;10.870;2024-02-26T11:09:48;95104.03;;;8.58;69.73
32933;BME280;19444;50.518;10.870;2024-02-26T11:12:49;95095.00;;;8.83;69.05
32933;BME280;19444;50.518;10.870;2024-02-26T11:15:48;95082.25;;;9.38;60.27
32933;BME280;19444;50.518;10.870;2024-02-26T11:18:47;95090.34;;;9.05;64.18
32933;BME280;19444;50.518;10.870;2024-02-26T11:21:45;95093.84;;;9.66;61.65
32933;BME280;19444;50.518;10.870;2024-02-26T11:24:42;95098.75;;;9.40;61.04
32933;BME280;19444;50.518;10.870;2024-02-26T11:27:44;95104.13;;;10.29;56.76
32933;BME280;19444;50.518;10.870;2024-02-26T11:30:46;95112.56;;;9.30;63.00
32933;BME280;19444;50.518;10.870;2024-02-26T11:33:44;95106.00;;;8.82;61.51
32933;BME280;19444;50.518;10.870;2024-02-26T11:36:41;95104.28;;;9.23;65.76
32933;BME280;19444;50.518;10.870;2024-02-26T11:39:43;95104.22;;;9.80;59.15
32933;BME280;19444;50.518;10.870;2024-02-26T11:42:45;95100.97;;;9.75;61.46
32933;BME280;19444;50.518;10.870;2024-02-26T11:48:39;95092.72;;;9.80;58.86
32933;BME280;19444;50.518;10.870;2024-02-26T11:51:37;95095.47;;;9.95;55.91
32933;BME280;19444;50.518;10.870;2024-02-26T11:54:54;95099.75;;;9.48;58.99
32933;BME280;19444;50.518;10.870;2024-02-26T11:57:52;95107.44;;;9.37;60.32
32933;BME280;19444;50.518;10.870;2024-02-26T12:00:49;95101.72;;;9.87;59.88
32933;BME280;19444;50.518;10.870;2024-02-26T12:03:47;95099.84;;;10.00;60.61
32933;BME280;19444;50.518;10.870;2024-02-26T12:06:52;95099.91;;;10.16;58.49
32933;BME280;19444;50.518;10.870;2024-02-26T12:09:50;95102.53;;;9.88;60.89
32933;BME280;19444;50.518;10.870;2024-02-26T12:12:49;95097.56;;;10.14;59.57
32933;BME280;19444;50.518;10.870;2024-02-26T12:15:56;95102.41;;;9.84;57.36
32933;BME280;19444;50.518;10.870;2024-02-26T12:18:54;95091.97;;;10.32;58.17
32933;BME280;19444;50.518;10.870;2024-02-26T12:21:52;95089.19;;;9.51;56.73
32933;BME280;19444;50.518;10.870;2024-02-26T12:24:59;95088.97;;;10.21;55.88
32933;BME280;19444;50.518;10.870;2024-02-26T12:27:57;95097.53;;;10.67;54.23
32933;BME280;19444;50.518;10.870;2024-02-26T12:30:54;95097.44;;;10.35;56.48
32933;BME280;19444;50.518;10.870;2024-02-26T12:33:52;95111.41;;;10.04;57.22
32933;BME280;19444;50.518;10.870;2024-02-26T12:36:49;95108.19;;;9.86;58.29
32933;BME280;19444;50.518;10.870;2024-02-26T12:39:46;95107.53;;;9.77;62.37
32933;BME280;19444;50.518;10.870;2024-02-26T12:42:43;95098.88;;;10.20;56.68
32933;BME280;19444;50.518;10.870;2024-02-26T12:45:40;95090.13;;;10.08;56.48
32933;BME280;19444;50.518;10.870;2024-02-26T12:48:38;95092.88;;;10.23;54.76
32933;BME280;19444;50.518;10.870;2024-02-26T12:51:36;95097.03;;;10.49;52.52
32933;BME280;19444;50.518;10.870;2024-02-26T12:54:34;95101.59;;;10.08;55.73
32933;BME280;19444;50.518;10.870;2024-02-26T12:57:37;95098.50;;;10.06;58.18
32933;BME280;19444;50.518;10.870;2024-02-26T13:00:35;95098.06;;;9.92;56.99
32933;BME280;19444;50.518;10.870;2024-02-26T13:03:36;95104.63;;;10.07;58.93
32933;BME280;19444;50.518;10.870;2024-02-26T13:06:33;95100.34;;;10.30;56.60
32933;BME280;19444;50.518;10.870;2024-02-26T13:09:35;95104.72;;;10.10;65.11
32933;BME280;19444;50.518;10.870;2024-02-26T13:12:33;95100.53;;;10.37;57.63
32933;BME280;19444;50.518;10.870;2024-02-26T13:15:30;95103.41;;;11.00;54.34
32933;BME280;19444;50.518;10.870;2024-02-26T13:18:27;95113.09;;;10.49;57.30
32933;BME280;19444;50.518;10.870;2024-02-26T13:21:27;95113.31;;;10.84;53.71
32933;BME280;19444;50.518;10.870;2024-02-26T13:24:25;95114.84;;;10.85;55.57
32933;BME280;19444;50.518;10.870;2024-02-26T13:27:23;95123.59;;;10.82;55.90
32933;BME280;19444;50.518;10.870;2024-02-26T13:30:20;95119.84;;;10.99;54.98
32933;BME280;19444;50.518;10.870;2024-02-26T13:33:17;95124.75;;;11.13;54.95
32933;BME280;19444;50.518;10.870;2024-02-26T13:36:15;95119.63;;;11.35;48.67
32933;BME280;19444;50.518;10.870;2024-02-26T13:39:24;95122.03;;;11.25;50.59
32933;BME280;19444;50.518;10.870;2024-02-26T13:42:22;95128.41;;;11.52;51.23
32933;BME280;19444;50.518;10.870;2024-02-26T13:45:18;95126.59;;;11.24;54.06
32933;BME280;19444;50.518;10.870;2024-02-26T13:48:16;95134.13;;;10.75;60.08
32933;BME280;19444;50.518;10.870;2024-02-26T13:51:13;95135.44;;;10.81;62.82
32933;BME280;19444;50.518;10.870;2024-02-26T13:54:10;95138.13;;;10.53;82.10
32933;BME280;19444;50.518;10.870;2024-02-26T13:57:07;95150.09;;;10.31;86.37
32933;BME280;19444;50.518;10.870;2024-02-26T14:00:07;95148.84;;;10.41;81.40
32933;BME280;19444;50.518;10.870;2024-02-26T14:03:06;95150.34;;;10.26;85.38
32933;BME280;19444;50.518;10.870;2024-02-26T14:06:03;95158.16;;;10.07;90.17
32933;BME280;19444;50.518;10.870;2024-02-26T14:09:01;95153.03;;;9.89;90.21
32933;BME280;19444;50.518;10.870;2024-02-26T14:12:01;95156.47;;;10.02;87.10
32933;BME280;19444;50.518;10.870;2024-02-26T14:14:58;95156.56;;;10.06;92.77
32933;BME280;19444;50.518;10.870;2024-02-26T14:17:57;95158.94;;;10.07;92.62
32933;BME280;19444;50.518;10.870;2024-02-26T14:20:54;95164.16;;;10.04;95.89
32933;BME280;19444;50.518;10.870;2024-02-26T14:23:51;95161.16;;;10.17;92.73
32933;BME280;19444;50.518;10.870;2024-02-26T14:26:48;95175.41;;;10.21;96.09
32933;BME280;19444;50.518;10.870;2024-02-26T14:29:45;95166.75;;;10.24;98.40
32933;BME280;19444;50.518;10.870;2024-02-26T14:32:42;95174.63;;;10.21;100.00
32933;BME280;19444;50.518;10.870;2024-02-26T14:35:40;95174.44;;;10.26;100.00
32933;BME280;19444;50.518;10.870;2024-02-26T14:38:37;95178.13;;;10.34;100.00
32933;BME280;19444;50.518;10.870;2024-02-26T14:41:36;95182.31;;;10.47;100.00
32933;BME280;19444;50.518;10.870;2024-02-26T14:44:32;95195.94;;;10.42;100.00
32933;BME280;19444;50.518;10.870;2024-02-26T14:47:30;95207.66;;;10.01;100.00
32933;BME280;19444;50.518;10.870;2024-02-26T14:50:27;95210.88;;;9.94;100.00
32933;BME280;19444;50.518;10.870;2024-02-26T14:53:24;95207.97;;;9.87;100.00
32933;BME280;19444;50.518;10.870;2024-02-26T14:56:20;95212.56;;;9.86;100.00
32933;BME280;19444;50.518;10.870;2024-02-26T14:59:17;95220.81;;;9.81;100.00
32933;BME280;19444;50.518;10.870;2024-02-26T15:02:14;95219.53;;;9.42;100.00
32933;BME280;19444;50.518;10.870;2024-02-26T15:05:11;95214.75;;;9.48;100.00
32933;BME280;19444;50.518;10.870;2024-02-26T15:08:08;95234.00;;;9.41;100.00
32933;BME280;19444;50.518;10.870;2024-02-26T15:11:07;95224.47;;;9.64;100.00
32933;BME280;19444;50.518;10.870;2024-02-26T15:14:03;95233.69;;;9.43;100.00
32933;BME280;19444;50.518;10.870;2024-02-26T15:17:00;95242.50;;;9.43;100.00
32933;BME280;19444;50.518;10.870;2024-02-26T15:19:57;95232.66;;;9.35;100.00
32933;BME280;19444;50.518;10.870;2024-02-26T15:22:56;95227.34;;;9.47;100.00
32933;BME280;19444;50.518;10.870;2024-02-26T15:25:52;95229.03;;;9.19;100.00
32933;BME280;19444;50.518;10.870;2024-02-26T15:28:50;95233.31;;;9.32;100.00
32933;BME280;19444;50.518;10.870;2024-02-26T15:31:46;95233.16;;;8.95;100.00